Time;durP1;ratioP1;P1;durP2;ratioP2;P2;SDS_P1;SDS_P2;PMS_P1;PMS_P2;Temp;Humidity;BMP_temperature;BMP_pressure;BME280_temperature;BME280_humidity;BME280_pressure;Samples;Min_cycle;Max_cycle;Signal;HPM_P1;HPM_P2
2021/11/11 00:01:53;;;;;;;21.93;13.13;;;9.00;99.90;;;;;;5013832;28;20473;-81
2021/11/11 00:04:20;;;;;;;25.00;16.03;;;9.00;99.90;;;;;;5014355;28;20427;-81
2021/11/11 00:06:47;;;;;;;25.40;14.63;;;8.90;99.90;;;;;;5014162;28;20177;-81
2021/11/11 00:09:13;;;;;;;25.97;15.30;;;8.90;99.90;;;;;;5014176;28;20469;-81
2021/11/11 00:11:40;;;;;;;27.33;14.87;;;8.90;99.90;;;;;;5012585;28;20438;-80
2021/11/11 00:14:06;;;;;;;28.67;14.87;;;8.90;99.90;;;;;;5013640;28;20461;-81
2021/11/11 00:16:32;;;;;;;28.33;16.13;;;8.90;99.90;;;;;;5012564;28;20941;-81
2021/11/11 00:18:58;;;;;;;31.27;16.70;;;8.90;99.90;;;;;;5013874;28;20203;-81
2021/11/11 00:21:24;;;;;;;26.27;15.23;;;8.90;99.90;;;;;;5013797;28;20224;-80
2021/11/11 00:23:52;;;;;;;29.13;16.33;;;8.90;99.90;;;;;;5013886;28;20428;-80
2021/11/11 00:26:20;;;;;;;34.37;14.70;;;8.90;99.90;;;;;;5010958;28;20206;-81
2021/11/11 00:28:46;;;;;;;21.30;13.63;;;8.80;99.90;;;;;;5013688;28;20528;-81
2021/11/11 00:31:12;;;;;;;26.90;14.50;;;8.90;99.90;;;;;;5013707;28;20420;-80
2021/11/11 00:33:38;;;;;;;19.30;12.20;;;8.80;99.90;;;;;;5013634;28;20186;-80
2021/11/11 00:36:04;;;;;;;21.93;14.70;;;8.80;99.90;;;;;;5013619;28;20174;-81
2021/11/11 00:38:30;;;;;;;27.00;13.07;;;8.70;99.90;;;;;;5013600;28;20416;-81
2021/11/11 00:40:56;;;;;;;23.40;12.13;;;8.70;99.90;;;;;;5012955;28;20781;-80
2021/11/11 00:43:22;;;;;;;23.93;13.00;;;8.70;99.90;;;;;;5013426;28;20414;-81
2021/11/11 00:45:49;;;;;;;25.17;14.57;;;8.70;99.90;;;;;;5013475;28;20251;-81
2021/11/11 00:48:14;;;;;;;20.80;13.67;;;8.60;99.90;;;;;;5013297;28;20209;-81
2021/11/11 00:50:40;;;;;;;30.37;14.77;;;8.70;99.90;;;;;;5013504;28;20505;-81
2021/11/11 00:53:07;;;;;;;24.40;14.00;;;8.70;99.90;;;;;;5013309;28;20270;-81
2021/11/11 00:55:37;;;;;;;24.77;13.10;;;8.70;99.90;;;;;;5011710;28;20182;-81
2021/11/11 00:58:04;;;;;;;31.80;15.17;;;8.70;99.90;;;;;;5013255;28;21083;-81
2021/11/11 01:00:30;;;;;;;30.50;15.77;;;8.70;99.90;;;;;;5013296;28;20479;-81
2021/11/11 01:02:59;;;;;;;32.67;16.30;;;8.70;99.90;;;;;;5012924;28;20492;-81
2021/11/11 01:05:25;;;;;;;31.30;16.30;;;8.60;99.90;;;;;;5012940;28;20442;-81
2021/11/11 01:07:51;;;;;;;34.37;14.97;;;8.60;99.90;;;;;;5012994;28;20464;-81
2021/11/11 01:10:19;;;;;;;29.97;16.47;;;8.60;99.90;;;;;;5009813;28;20440;-81
2021/11/11 01:12:48;;;;;;;34.80;17.10;;;8.60;99.90;;;;;;5012976;28;20572;-81
2021/11/11 01:15:16;;;;;;;30.37;18.27;;;8.70;99.90;;;;;;5012539;28;20432;-81
2021/11/11 01:17:42;;;;;;;29.73;17.70;;;8.80;99.90;;;;;;5012815;28;20524;-81
2021/11/11 01:20:09;;;;;;;33.43;19.07;;;8.70;99.90;;;;;;5012849;28;20429;-81
2021/11/11 01:22:37;;;;;;;36.63;17.80;;;8.70;99.90;;;;;;5012708;28;20435;-81
2021/11/11 01:25:05;;;;;;;32.97;15.67;;;8.80;99.90;;;;;;5012352;28;20425;-81
2021/11/11 01:27:30;;;;;;;28.07;16.23;;;8.80;99.90;;;;;;5012650;28;20423;-81
2021/11/11 01:29:56;;;;;;;32.20;16.80;;;8.80;99.90;;;;;;5010504;28;20837;-80
2021/11/11 01:32:22;;;;;;;48.17;22.07;;;8.80;99.90;;;;;;5012527;28;20166;-80
2021/11/11 01:34:47;;;;;;;43.50;18.80;;;8.80;99.90;;;;;;5011782;28;20190;-81
2021/11/11 01:37:13;;;;;;;32.50;19.60;;;8.80;99.90;;;;;;5010276;28;20238;-80
2021/11/11 01:39:45;;;;;;;37.33;20.10;;;8.80;99.90;;;;;;5011342;28;20184;-81
2021/11/11 01:42:10;;;;;;;36.17;19.40;;;8.80;99.90;;;;;;5012474;28;20206;-81
2021/11/11 01:44:37;;;;;;;48.37;22.70;;;8.80;99.90;;;;;;5012329;28;20418;-80
2021/11/11 01:47:03;;;;;;;47.27;22.37;;;8.80;99.90;;;;;;5012424;28;20193;-81
2021/11/11 01:49:28;;;;;;;39.30;19.37;;;8.70;99.90;;;;;;5011942;28;20972;-81
2021/11/11 01:51:54;;;;;;;46.90;26.03;;;8.80;99.90;;;;;;5013446;28;20430;-80
2021/11/11 01:54:23;;;;;;;47.30;23.73;;;8.80;99.90;;;;;;5013496;28;20175;-81
2021/11/11 01:56:48;;;;;;;43.60;22.70;;;8.70;99.90;;;;;;5013230;28;20441;-81
2021/11/11 01:59:15;;;;;;;47.47;21.17;;;8.80;99.90;;;;;;5013348;28;20444;-81
2021/11/11 02:01:41;;;;;;;35.87;21.80;;;8.80;99.90;;;;;;5013122;28;20233;-80
2021/11/11 02:04:06;;;;;;;41.03;20.93;;;8.80;99.90;;;;;;5013462;28;20432;-80
2021/11/11 02:06:32;;;;;;;40.17;22.60;;;8.80;99.90;;;;;;5013291;28;20406;-80
2021/11/11 02:08:58;;;;;;;42.20;21.13;;;8.80;99.90;;;;;;5013248;28;20200;-80
2021/11/11 02:11:23;;;;;;;41.13;23.53;;;8.80;99.90;;;;;;5012881;28;20177;-80
2021/11/11 02:13:49;;;;;;;43.67;21.57;;;8.80;99.90;;;;;;5013187;28;20222;-80
2021/11/11 02:16:24;;;;;;;43.17;22.13;;;8.80;99.90;;;;;;5013172;28;20200;-80
2021/11/11 02:18:53;;;;;;;41.23;22.07;;;8.80;99.90;;;;;;5013219;28;20428;-80
2021/11/11 02:21:19;;;;;;;34.40;21.10;;;8.80;99.90;;;;;;5013158;28;20409;-80
2021/11/11 02:23:44;;;;;;;42.70;21.23;;;8.70;99.90;;;;;;5013164;28;20878;-80
2021/11/11 02:26:10;;;;;;;48.73;23.13;;;8.70;99.90;;;;;;5012749;28;20414;-80
2021/11/11 02:28:36;;;;;;;46.93;25.03;;;8.70;99.90;;;;;;5011743;28;20246;-81
2021/11/11 02:31:03;;;;;;;37.83;19.63;;;8.70;99.90;;;;;;5012924;28;20167;-80
2021/11/11 02:33:28;;;;;;;43.27;21.40;;;8.70;99.90;;;;;;5012983;28;20445;-80
2021/11/11 02:35:55;;;;;;;39.03;21.60;;;8.70;99.90;;;;;;5011700;28;20767;-80
2021/11/11 02:38:21;;;;;;;45.77;21.60;;;8.70;99.90;;;;;;5011586;28;20316;-80
2021/11/11 02:40:47;;;;;;;54.73;21.70;;;8.70;99.90;;;;;;5012902;28;20445;-80
2021/11/11 02:43:14;;;;;;;40.67;20.63;;;8.80;99.90;;;;;;5017059;28;20841;-80
2021/11/11 02:45:45;;;;;;;36.37;20.77;;;8.70;99.90;;;;;;5017065;28;20272;-80
2021/11/11 02:48:14;;;;;;;37.20;20.30;;;8.70;99.90;;;;;;5016745;28;20464;-80
2021/11/11 02:50:39;;;;;;;37.83;19.00;;;8.70;99.90;;;;;;5017124;28;20421;-80
2021/11/11 02:53:06;;;;;;;38.33;21.47;;;8.80;99.90;;;;;;5016952;28;20486;-80
2021/11/11 02:55:32;;;;;;;36.77;19.50;;;8.70;99.90;;;;;;5016720;28;20168;-80
2021/11/11 02:57:59;;;;;;;39.07;19.70;;;8.70;99.90;;;;;;5016923;28;20777;-79
2021/11/11 03:00:41;;;;;;;41.10;21.97;;;8.70;99.90;;;;;;5017020;28;20410;-80
2021/11/11 03:03:12;;;;;;;29.47;18.53;;;8.60;99.90;;;;;;5016587;28;20980;-80
2021/11/11 03:05:38;;;;;;;44.83;21.20;;;8.70;99.90;;;;;;5016887;28;20457;-80
2021/11/11 03:08:04;;;;;;;46.87;22.93;;;8.70;99.90;;;;;;5016829;28;20921;-79
2021/11/11 03:10:30;;;;;;;43.40;20.90;;;8.70;99.90;;;;;;5016459;28;20449;-79
2021/11/11 03:12:58;;;;;;;42.13;20.50;;;8.70;99.90;;;;;;5016645;28;20409;-79
2021/11/11 03:15:25;;;;;;;38.10;19.80;;;8.60;99.90;;;;;;5016619;28;20467;-80
2021/11/11 03:17:51;;;;;;;33.40;21.77;;;8.60;99.90;;;;;;5016586;28;20500;-79
2021/11/11 03:20:17;;;;;;;44.67;21.57;;;8.60;99.90;;;;;;5015393;28;20531;-80
2021/11/11 03:22:44;;;;;;;40.90;18.90;;;8.70;99.90;;;;;;5015191;28;20941;-80
2021/11/11 03:25:13;;;;;;;44.20;23.57;;;8.70;99.90;;;;;;5016117;28;20515;-79
2021/11/11 03:27:39;;;;;;;48.53;20.93;;;8.60;99.90;;;;;;5016453;28;20405;-79
2021/11/11 03:30:08;;;;;;;41.40;19.50;;;8.70;99.90;;;;;;5016410;28;20468;-80
2021/11/11 03:32:33;;;;;;;40.17;18.90;;;8.60;99.90;;;;;;5016313;28;20414;-79
2021/11/11 03:34:59;;;;;;;39.13;20.57;;;8.60;99.90;;;;;;5016423;28;20425;-79
2021/11/11 03:37:25;;;;;;;37.60;19.50;;;8.70;99.90;;;;;;5015876;28;20545;-79
2021/11/11 03:39:57;;;;;;;35.20;17.70;;;8.70;99.90;;;;;;5015773;28;20201;-80
2021/11/11 03:42:22;;;;;;;40.03;23.13;;;8.60;99.90;;;;;;5016175;28;20577;-79
2021/11/11 03:44:48;;;;;;;34.60;19.30;;;8.70;99.90;;;;;;5016149;28;20504;-79
2021/11/11 03:47:14;;;;;;;40.50;20.87;;;8.70;99.90;;;;;;5016115;28;20218;-79
2021/11/11 03:49:40;;;;;;;38.90;21.20;;;8.70;99.90;;;;;;5031807;28;20716;-79
2021/11/11 03:52:07;;;;;;;29.40;18.17;;;8.70;99.90;;;;;;5015745;28;20499;-80
2021/11/11 03:54:33;;;;;;;39.00;20.57;;;8.70;99.90;;;;;;5014997;28;20469;-79
2021/11/11 03:56:59;;;;;;;34.63;18.43;;;8.70;99.90;;;;;;5015892;28;20417;-80
2021/11/11 03:59:26;;;;;;;35.50;19.93;;;8.70;99.90;;;;;;5015972;28;20820;-79
2021/11/11 04:01:54;;;;;;;37.23;19.97;;;8.60;99.90;;;;;;5015723;28;20713;-80
2021/11/11 04:04:20;;;;;;;35.07;19.20;;;8.60;99.90;;;;;;5015882;28;20471;-80
2021/11/11 04:06:47;;;;;;;38.60;22.70;;;8.60;99.90;;;;;;5016382;28;20780;-79
2021/11/11 04:09:13;;;;;;;32.90;20.10;;;8.70;99.90;;;;;;5014867;28;20484;-80
2021/11/11 04:11:38;;;;;;;38.63;20.93;;;8.60;99.90;;;;;;5015773;28;20496;-79
2021/11/11 04:14:06;;;;;;;38.40;22.43;;;8.70;99.90;;;;;;5015746;28;20187;-79
2021/11/11 04:16:33;;;;;;;40.60;20.37;;;8.60;99.90;;;;;;5015479;28;20230;-80
2021/11/11 04:19:00;;;;;;;37.00;20.50;;;8.60;99.90;;;;;;5015443;28;20472;-80
2021/11/11 04:21:26;;;;;;;35.00;20.83;;;8.70;99.90;;;;;;5015495;28;20979;-80
2021/11/11 04:23:52;;;;;;;41.23;23.07;;;8.60;99.90;;;;;;5014226;28;20464;-81
2021/11/11 04:26:29;;;;;;;38.43;21.77;;;8.60;99.90;;;;;;5015036;28;20193;-80
2021/11/11 04:29:04;;;;;;;40.37;20.50;;;8.60;99.90;;;;;;5015277;28;20486;-82
2021/11/11 04:31:38;;;;;;;41.67;21.10;;;8.60;99.90;;;;;;5015366;28;20494;-82
2021/11/11 04:34:11;;;;;;;46.50;23.87;;;8.60;99.90;;;;;;5015215;28;20420;-82
2021/11/11 05:01:13;;;;;;;41.00;23.07;;;8.70;99.90;;;;;;5014923;28;20429;-81
2021/11/11 05:03:43;;;;;;;40.90;21.57;;;8.70;99.90;;;;;;5014797;28;20428;-82
2021/11/11 05:06:09;;;;;;;37.83;21.60;;;8.70;99.90;;;;;;5013735;28;20520;-82
2021/11/11 05:08:34;;;;;;;44.93;23.20;;;8.70;99.90;;;;;;5011039;28;20944;-82
2021/11/11 05:11:01;;;;;;;41.77;22.37;;;8.70;99.90;;;;;;5013852;28;20555;-82
2021/11/11 05:13:28;;;;;;;46.93;24.20;;;8.70;99.90;;;;;;5014575;28;20619;-82
2021/11/11 05:15:54;;;;;;;41.10;22.33;;;8.70;99.90;;;;;;5014550;28;20417;-81
2021/11/11 05:18:19;;;;;;;43.43;24.73;;;8.80;99.90;;;;;;5014507;28;20776;-81
2021/11/11 05:20:45;;;;;;;44.43;24.07;;;8.70;99.90;;;;;;5013163;28;20413;-81
2021/11/11 05:23:11;;;;;;;38.30;21.57;;;8.80;99.90;;;;;;5014328;28;20189;-81
2021/11/11 05:25:37;;;;;;;37.60;22.50;;;8.70;99.90;;;;;;5014003;28;20197;-81
2021/11/11 05:28:03;;;;;;;44.83;23.53;;;8.80;99.90;;;;;;5014268;28;20425;-81
2021/11/11 05:30:29;;;;;;;37.30;21.37;;;8.80;99.90;;;;;;5014330;28;21127;-82
2021/11/11 05:32:58;;;;;;;42.23;23.40;;;8.80;99.90;;;;;;5014184;28;20511;-81
2021/11/11 05:35:24;;;;;;;44.10;23.80;;;8.80;99.90;;;;;;5012773;28;20547;-81
2021/11/11 05:37:50;;;;;;;48.27;25.83;;;8.80;99.90;;;;;;5012225;28;20928;-81
2021/11/11 05:40:20;;;;;;;39.90;20.87;;;8.80;99.90;;;;;;5013773;28;20432;-81
2021/11/11 05:42:46;;;;;;;41.13;22.77;;;8.80;99.90;;;;;;5014088;28;20177;-81
2021/11/11 05:45:13;;;;;;;39.10;22.47;;;8.80;99.90;;;;;;5013880;28;20510;-81
2021/11/11 05:47:39;;;;;;;43.77;23.33;;;8.80;99.90;;;;;;5012464;28;20964;-81
2021/11/11 05:50:05;;;;;;;35.23;20.40;;;8.80;99.90;;;;;;5013720;28;20478;-81
2021/11/11 05:52:31;;;;;;;41.00;20.80;;;8.80;99.90;;;;;;5013739;28;20424;-81
2021/11/11 05:54:57;;;;;;;38.97;22.13;;;8.80;99.90;;;;;;5013433;28;20425;-81
2021/11/11 05:57:23;;;;;;;48.33;21.20;;;8.80;99.90;;;;;;5013722;28;20421;-82
2021/11/11 05:59:48;;;;;;;44.40;23.97;;;8.80;99.90;;;;;;5013605;28;20220;-81
2021/11/11 06:02:15;;;;;;;46.43;23.00;;;8.80;99.90;;;;;;5013477;28;20221;-81
2021/11/11 06:04:42;;;;;;;43.50;22.87;;;8.80;99.90;;;;;;5013502;28;20515;-81
2021/11/11 06:07:09;;;;;;;46.83;21.30;;;8.70;99.90;;;;;;5012237;28;20418;-81
2021/11/11 06:09:35;;;;;;;45.07;23.57;;;8.70;99.90;;;;;;5013074;28;20474;-81
2021/11/11 06:12:01;;;;;;;46.17;23.87;;;8.80;99.90;;;;;;5019782;28;20437;-81
2021/11/11 06:14:27;;;;;;;46.23;25.73;;;8.80;99.90;;;;;;5013253;28;20439;-82
2021/11/11 06:16:53;;;;;;;47.67;23.50;;;8.80;99.90;;;;;;5011781;28;20604;-81
2021/11/11 06:19:19;;;;;;;49.70;25.00;;;8.70;99.90;;;;;;5013306;28;20464;-81
2021/11/11 06:21:46;;;;;;;50.37;26.33;;;8.80;99.90;;;;;;5013316;28;20193;-81
2021/11/11 06:24:13;;;;;;;51.43;26.10;;;8.80;99.90;;;;;;5012393;28;20429;-81
2021/11/11 06:26:39;;;;;;;48.30;25.90;;;8.80;99.90;;;;;;5013286;28;20436;-81
2021/11/11 06:29:05;;;;;;;46.93;23.07;;;8.80;99.90;;;;;;5013153;28;20484;-81
2021/11/11 06:31:31;;;;;;;41.70;22.30;;;8.90;99.90;;;;;;5012876;28;20718;-81
2021/11/11 06:33:57;;;;;;;46.20;24.67;;;8.80;99.90;;;;;;5012197;28;20483;-82
2021/11/11 06:36:23;;;;;;;42.20;22.90;;;8.80;99.90;;;;;;5012861;28;20201;-81
2021/11/11 06:38:49;;;;;;;44.90;23.40;;;8.90;99.90;;;;;;5011430;28;20430;-81
2021/11/11 06:41:15;;;;;;;36.93;21.00;;;8.80;99.90;;;;;;5009991;28;20436;-81
2021/11/11 06:43:40;;;;;;;39.07;21.37;;;8.80;99.90;;;;;;5011742;28;20182;-81
2021/11/11 06:46:07;;;;;;;33.20;22.57;;;8.90;99.90;;;;;;5013015;28;20181;-81
2021/11/11 06:48:33;;;;;;;36.63;21.10;;;8.90;99.90;;;;;;5012986;28;20883;-81
2021/11/11 06:51:00;;;;;;;37.90;20.57;;;8.90;99.90;;;;;;5011604;28;20928;-81
2021/11/11 06:53:26;;;;;;;47.63;24.03;;;8.90;99.90;;;;;;5011764;28;20417;-81
2021/11/11 06:55:53;;;;;;;47.47;23.50;;;8.90;99.90;;;;;;5012692;28;20882;-81
2021/11/11 06:58:23;;;;;;;40.00;22.13;;;8.90;99.90;;;;;;5013057;28;20778;-81
2021/11/11 07:00:51;;;;;;;38.80;20.80;;;8.90;99.90;;;;;;5012805;28;20776;-81
2021/11/11 07:03:17;;;;;;;37.80;19.10;;;8.90;99.90;;;;;;5011393;28;20539;-81
2021/11/11 07:05:44;;;;;;;38.27;21.50;;;9.00;99.90;;;;;;5013003;28;20417;-81
2021/11/11 07:08:11;;;;;;;37.60;21.70;;;9.00;99.90;;;;;;5012786;28;20465;-81
2021/11/11 07:10:38;;;;;;;36.27;21.80;;;9.00;99.90;;;;;;5012289;28;20962;-80
2021/11/11 07:13:04;;;;;;;47.17;23.70;;;9.00;99.90;;;;;;5012727;28;20456;-78
2021/11/11 07:15:30;;;;;;;38.10;20.10;;;9.00;99.90;;;;;;5012690;28;20469;-79
2021/11/11 07:17:56;;;;;;;38.00;21.13;;;9.00;99.90;;;;;;5012909;28;20832;-78
2021/11/11 07:20:22;;;;;;;40.20;21.43;;;9.00;99.90;;;;;;5012870;28;20412;-78
2021/11/11 07:22:48;;;;;;;41.23;21.20;;;9.10;99.90;;;;;;5012791;28;20175;-79
2021/11/11 07:25:15;;;;;;;36.70;19.70;;;9.10;99.90;;;;;;5012334;28;20945;-79
2021/11/11 07:27:41;;;;;;;33.07;21.47;;;9.10;99.90;;;;;;5012921;28;20462;-79
2021/11/11 07:30:14;;;;;;;40.63;20.07;;;9.10;99.90;;;;;;5016316;28;20913;-79
2021/11/11 07:32:46;;;;;;;38.10;21.63;;;9.10;99.90;;;;;;5016368;28;20413;-78
2021/11/11 07:35:13;;;;;;;34.30;20.03;;;9.10;99.90;;;;;;5016186;28;20425;-79
2021/11/11 07:37:41;;;;;;;42.07;21.20;;;9.10;99.90;;;;;;5015763;28;21029;-79
2021/11/11 07:40:08;;;;;;;36.20;20.00;;;9.10;99.90;;;;;;5014211;28;20530;-79
2021/11/11 07:42:36;;;;;;;37.70;21.53;;;9.20;99.90;;;;;;5016099;28;20418;-79
2021/11/11 07:45:03;;;;;;;41.10;21.47;;;9.20;99.90;;;;;;5016117;28;20413;-78
2021/11/11 07:47:28;;;;;;;37.40;22.60;;;9.20;99.90;;;;;;5016135;28;20417;-79
2021/11/11 07:49:59;;;;;;;44.57;23.70;;;9.20;99.90;;;;;;5015505;28;21064;-81
2021/11/11 07:52:27;;;;;;;40.37;23.47;;;9.20;99.90;;;;;;5015954;28;20235;-80
2021/11/11 07:54:55;;;;;;;43.47;24.03;;;9.20;99.90;;;;;;5015598;28;20768;-80
2021/11/11 07:57:23;;;;;;;38.27;23.10;;;9.30;99.90;;;;;;5015683;28;20983;-81
2021/11/11 07:59:49;;;;;;;39.47;20.90;;;9.40;99.90;;;;;;5015842;28;20409;-81
2021/11/11 08:02:15;;;;;;;38.33;21.93;;;9.40;99.90;;;;;;5015637;28;20523;-81
2021/11/11 08:04:41;;;;;;;43.87;24.67;;;9.40;99.90;;;;;;5015689;28;20182;-81
2021/11/11 08:07:28;;;;;;;46.60;24.57;;;9.40;99.90;;;;;;5015709;28;20417;-81
2021/11/11 08:09:52;;;;;;;38.33;24.37;;;9.40;99.90;;;;;;5014866;28;20218;-81
2021/11/11 08:12:19;;;;;;;45.07;24.43;;;9.50;99.90;;;;;;5015597;28;20421;-80
2021/11/11 08:14:45;;;;;;;44.40;23.77;;;9.50;99.90;;;;;;5015571;28;20210;-81
2021/11/11 08:17:11;;;;;;;40.83;22.70;;;9.50;99.90;;;;;;5015549;28;20480;-81
2021/11/11 08:19:39;;;;;;;48.50;25.13;;;9.50;99.90;;;;;;5015519;28;20190;-81
2021/11/11 08:22:05;;;;;;;41.23;23.60;;;9.60;99.90;;;;;;5015542;28;20460;-81
2021/11/11 08:24:30;;;;;;;45.77;24.10;;;9.60;99.90;;;;;;5015117;28;20825;-81
2021/11/11 08:26:56;;;;;;;44.10;25.80;;;9.60;99.90;;;;;;5015290;28;20512;-81
2021/11/11 08:29:21;;;;;;;44.53;24.77;;;9.60;99.90;;;;;;5015184;28;20214;-81
2021/11/11 08:31:47;;;;;;;39.80;24.47;;;9.60;99.90;;;;;;5013957;28;20177;-81
2021/11/11 08:34:15;;;;;;;50.53;24.70;;;9.60;99.90;;;;;;5015160;28;20654;-81
2021/11/11 08:36:41;;;;;;;39.10;23.97;;;9.70;99.90;;;;;;5015175;28;20619;-80
2021/11/11 08:39:06;;;;;;;43.70;26.30;;;9.70;99.90;;;;;;5014645;28;20420;-80
2021/11/11 08:41:32;;;;;;;42.90;25.00;;;9.70;99.90;;;;;;5014799;28;20190;-81
2021/11/11 08:43:58;;;;;;;41.10;23.30;;;9.80;99.90;;;;;;5014990;28;20194;-80
2021/11/11 08:46:25;;;;;;;46.77;25.00;;;9.80;99.90;;;;;;5014997;28;20172;-81
2021/11/11 08:48:52;;;;;;;40.13;23.87;;;9.80;99.90;;;;;;5014822;28;20557;-81
2021/11/11 08:51:18;;;;;;;36.07;22.60;;;9.80;99.90;;;;;;5013607;28;20434;-81
2021/11/11 08:53:44;;;;;;;46.00;25.10;;;9.80;99.90;;;;;;5014483;28;21080;-81
2021/11/11 08:56:09;;;;;;;38.30;22.60;;;9.80;99.90;;;;;;5014717;28;20440;-80
2021/11/11 08:58:39;;;;;;;42.30;26.00;;;9.90;99.90;;;;;;5014833;28;20414;-80
2021/11/11 09:01:06;;;;;;;39.60;26.07;;;9.90;99.90;;;;;;5014475;28;20627;-81
2021/11/11 09:03:35;;;;;;;41.03;24.40;;;9.90;99.90;;;;;;5014626;28;20419;-80
2021/11/11 09:06:01;;;;;;;45.30;25.40;;;9.90;99.90;;;;;;5014674;28;20501;-80
2021/11/11 09:08:26;;;;;;;45.53;25.03;;;9.90;99.90;;;;;;5014165;28;20466;-80
2021/11/11 09:10:53;;;;;;;36.53;22.17;;;9.90;99.90;;;;;;5014515;28;20919;-80
2021/11/11 09:13:19;;;;;;;36.83;23.37;;;9.90;99.90;;;;;;5014546;28;20181;-80
2021/11/11 09:15:45;;;;;;;38.47;24.83;;;9.90;99.90;;;;;;5014418;28;20423;-80
2021/11/11 09:18:10;;;;;;;48.00;25.37;;;9.90;99.90;;;;;;5014398;28;20946;-81
2021/11/11 09:20:40;;;;;;;34.57;22.90;;;9.90;99.90;;;;;;5014278;28;20206;-80
2021/11/11 09:23:07;;;;;;;46.20;25.80;;;10.00;99.90;;;;;;5014323;28;20548;-80
2021/11/11 09:25:37;;;;;;;44.17;22.20;;;10.00;99.90;;;;;;5013885;28;20444;-80
2021/11/11 09:28:04;;;;;;;48.43;26.47;;;10.00;99.90;;;;;;5014138;28;20890;-79
2021/11/11 09:30:33;;;;;;;43.30;23.77;;;10.00;99.90;;;;;;5014105;28;20414;-81
2021/11/11 09:32:59;;;;;;;44.67;24.30;;;10.00;99.90;;;;;;5014194;28;20414;-80
2021/11/11 09:35:25;;;;;;;35.20;22.37;;;10.00;99.90;;;;;;5013975;28;20493;-81
2021/11/11 09:37:54;;;;;;;41.93;22.13;;;10.10;99.90;;;;;;5013613;28;20272;-80
2021/11/11 09:40:23;;;;;;;38.70;22.80;;;10.10;99.90;;;;;;5013326;28;20183;-80
2021/11/11 09:42:49;;;;;;;37.80;23.60;;;10.20;99.90;;;;;;5013867;28;20425;-80
2021/11/11 09:45:18;;;;;;;35.73;22.40;;;10.20;99.90;;;;;;5013806;28;20410;-83
2021/11/11 09:47:48;;;;;;;35.97;23.23;;;10.30;99.90;;;;;;5013864;28;20414;-81
2021/11/11 09:50:14;;;;;;;34.80;21.07;;;10.20;99.90;;;;;;5013567;28;20834;-81
2021/11/11 09:52:41;;;;;;;34.87;21.00;;;10.30;99.90;;;;;;5013457;28;20419;-81
2021/11/11 10:00:42;;;;;;;41.87;23.00;;;10.30;99.90;;;;;;5013727;28;20505;-82
2021/11/11 10:03:09;;;;;;;31.23;18.73;;;10.30;99.90;;;;;;5013420;28;21016;-82
2021/11/11 10:05:35;;;;;;;39.10;21.43;;;10.30;99.90;;;;;;5013693;28;20485;-82
2021/11/11 10:08:03;;;;;;;38.40;21.50;;;10.30;99.90;;;;;;5013431;28;20517;-82
2021/11/11 10:10:34;;;;;;;37.10;20.13;;;10.30;99.90;;;;;;5013358;28;20191;-82
2021/11/11 10:13:18;;;;;;;30.20;19.00;;;10.30;99.90;;;;;;5013454;28;20513;-82
2021/11/11 10:15:58;;;;;;;33.10;20.93;;;10.40;99.90;;;;;;5013361;28;20453;-81
2021/11/11 10:18:56;;;;;;;32.90;20.90;;;10.40;99.90;;;;;;5013392;28;20811;-81
2021/11/11 10:21:45;;;;;;;34.50;19.23;;;10.40;99.90;;;;;;5013386;28;20420;-82
2021/11/11 10:24:14;;;;;;;29.53;18.80;;;10.50;99.90;;;;;;5013166;28;20493;-80
2021/11/11 10:26:42;;;;;;;32.17;18.30;;;10.50;99.90;;;;;;5013310;28;21054;-88
2021/11/11 10:29:34;;;;;;;25.90;16.67;;;10.40;99.90;;;;;;5013206;28;20465;-81
2021/11/11 10:32:04;;;;;;;28.27;17.17;;;10.50;99.90;;;;;;5013359;28;20407;-81
2021/11/11 10:34:31;;;;;;;30.27;17.10;;;10.50;99.90;;;;;;5012030;28;20431;-80
2021/11/11 10:36:58;;;;;;;31.10;19.57;;;10.50;99.90;;;;;;5013183;28;20411;-81
2021/11/11 10:39:29;;;;;;;29.57;17.40;;;10.50;99.90;;;;;;5012749;28;20908;-82
2021/11/11 10:41:57;;;;;;;33.70;17.80;;;10.50;99.90;;;;;;5013159;28;20435;-81
2021/11/11 10:44:34;;;;;;;26.37;17.30;;;10.50;99.90;;;;;;5013169;28;20421;-81
2021/11/11 10:47:03;;;;;;;28.00;19.90;;;10.60;99.90;;;;;;5013452;28;20522;-81
2021/11/11 10:49:33;;;;;;;32.80;19.60;;;10.60;99.90;;;;;;5027624;28;20529;-81
2021/11/11 10:52:24;;;;;;;31.20;19.60;;;10.50;99.90;;;;;;5014131;28;20831;-83
2021/11/11 10:54:57;;;;;;;28.97;17.73;;;10.50;99.90;;;;;;5007070;28;20423;-81
2021/11/11 10:57:49;;;;;;;27.63;16.57;;;10.50;99.90;;;;;;5012831;28;20515;-81
2021/11/11 11:00:39;;;;;;;22.80;15.20;;;10.50;99.90;;;;;;4985257;28;20510;-81
2021/11/11 11:03:30;;;;;;;26.47;16.60;;;10.50;99.90;;;;;;5012243;28;20473;-81
2021/11/11 11:06:05;;;;;;;30.30;17.27;;;10.50;99.90;;;;;;5014621;28;20418;-81
2021/11/11 11:08:44;;;;;;;26.27;15.07;;;10.40;99.90;;;;;;5015355;28;20453;-81
2021/11/11 11:11:15;;;;;;;27.20;15.63;;;10.40;99.90;;;;;;5016886;28;20419;-82
2021/11/11 11:13:51;;;;;;;23.07;15.70;;;10.40;99.90;;;;;;5016961;28;20770;-82
2021/11/11 11:16:22;;;;;;;25.93;15.70;;;10.40;99.90;;;;;;5016491;28;20435;-81
2021/11/11 11:18:48;;;;;;;24.10;14.57;;;10.50;99.90;;;;;;5015766;28;20421;-81
2021/11/11 11:21:18;;;;;;;40.20;19.07;;;10.50;99.90;;;;;;5016968;28;20786;-81
2021/11/11 11:23:56;;;;;;;23.27;15.23;;;10.50;99.90;;;;;;5016486;28;20176;-82
2021/11/11 11:26:28;;;;;;;21.83;15.23;;;10.50;99.90;;;;;;5016907;28;20479;-82
2021/11/11 11:29:16;;;;;;;32.40;14.93;;;10.40;99.90;;;;;;5016783;28;20474;-80
2021/11/11 11:31:52;;;;;;;27.50;14.40;;;10.50;99.90;;;;;;5016942;28;20517;-81
2021/11/11 11:34:28;;;;;;;26.53;16.50;;;10.50;99.90;;;;;;5015703;28;20463;-82
2021/11/11 11:36:55;;;;;;;23.43;16.57;;;10.50;99.90;;;;;;5016626;28;20438;-87
2021/11/11 11:39:23;;;;;;;24.40;15.53;;;10.50;99.90;;;;;;5030419;28;20436;-89
2021/11/11 11:41:50;;;;;;;27.60;15.80;;;10.50;99.90;;;;;;5015758;28;20450;-88
2021/11/11 11:44:17;;;;;;;25.13;15.10;;;10.50;99.90;;;;;;5015381;28;20415;-85
2021/11/11 11:47:12;;;;;;;25.10;15.00;;;10.50;99.90;;;;;;5014801;28;20410;-85
2021/11/11 11:49:40;;;;;;;29.83;16.00;;;10.50;99.90;;;;;;5010483;28;20484;-85
2021/11/11 11:52:10;;;;;;;30.57;14.73;;;10.50;99.90;;;;;;5012929;28;20784;-89
2021/11/11 11:54:44;;;;;;;26.83;14.53;;;10.50;99.90;;;;;;5015304;28;20419;-86
2021/11/11 11:57:26;;;;;;;23.07;15.37;;;10.50;99.90;;;;;;5015833;28;20421;-86
2021/11/11 11:59:58;;;;;;;22.47;14.50;;;10.50;99.90;;;;;;5015443;28;20424;-87
2021/11/11 12:02:38;;;;;;;20.97;14.80;;;10.50;99.90;;;;;;5013913;28;20462;-86
2021/11/11 12:05:23;;;;;;;24.53;15.23;;;10.50;99.90;;;;;;5013804;28;20930;-93
2021/11/11 12:10:39;;;;;;;22.13;15.03;;;10.50;99.90;;;;;;5016478;28;20473;-88
2021/11/11 12:41:16;;;;;;;22.13;14.90;;;10.50;99.90;;;;;;5014962;28;20426;-91
2021/11/11 12:43:42;;;;;;;20.10;14.67;;;10.60;99.90;;;;;;5015387;28;20418;-88
2021/11/11 12:46:39;;;;;;;22.07;15.50;;;10.60;99.90;;;;;;5014673;28;20458;-89
2021/11/11 12:49:28;;;;;;;20.20;14.77;;;10.60;99.90;;;;;;5011648;28;20483;-87
2021/11/11 12:52:12;;;;;;;29.37;15.73;;;10.60;99.90;;;;;;5014318;28;20500;-89
2021/11/11 12:54:39;;;;;;;27.37;16.37;;;10.60;99.90;;;;;;5014468;28;20466;-89
2021/11/11 12:57:05;;;;;;;22.87;15.83;;;10.50;99.90;;;;;;5015401;28;20424;-87
2021/11/11 12:59:32;;;;;;;24.70;15.80;;;10.50;99.90;;;;;;5013648;28;20469;-88
2021/11/11 13:02:03;;;;;;;19.50;14.27;;;10.50;99.90;;;;;;5014647;28;20460;-90
2021/11/11 13:04:31;;;;;;;22.47;14.17;;;10.50;99.90;;;;;;5014674;28;20552;-92
2021/11/11 13:07:00;;;;;;;23.30;14.37;;;10.50;99.90;;;;;;5015410;28;20430;-87
2021/11/11 13:09:32;;;;;;;24.23;15.40;;;10.50;99.90;;;;;;5012137;28;20974;-88
2021/11/11 13:12:06;;;;;;;21.20;14.07;;;10.50;99.90;;;;;;5014492;28;20434;-87
2021/11/11 13:14:34;;;;;;;24.40;14.77;;;10.60;99.90;;;;;;5013810;28;21018;-85
2021/11/11 13:17:00;;;;;;;23.30;15.03;;;10.60;99.90;;;;;;5014477;28;20415;-83
2021/11/11 13:19:35;;;;;;;20.40;13.13;;;10.60;99.90;;;;;;5014251;28;20966;-88
2021/11/11 13:22:10;;;;;;;23.27;14.37;;;10.60;99.90;;;;;;5014006;28;20200;-90
2021/11/11 13:24:58;;;;;;;22.67;13.03;;;10.60;99.90;;;;;;5014188;28;20410;-89
2021/11/11 13:59:27;;;;;;;19.60;13.53;;;10.40;99.90;;;;;;5013801;28;20397;-79
2021/11/11 14:04:49;;;;;;;23.70;15.07;;;10.40;99.90;;;;;;5013458;28;20413;-80
2021/11/11 15:18:34;;;;;;;22.43;13.47;;;10.00;99.90;;;;;;5010748;28;20426;-80
2021/11/11 16:26:26;;;;;;;23.97;15.80;;;9.90;99.90;;;;;;5014651;28;20406;-81
2021/11/11 16:28:58;;;;;;;23.33;15.80;;;9.90;99.90;;;;;;5014296;28;20501;-81
2021/11/11 16:31:25;;;;;;;27.50;19.50;;;10.00;99.90;;;;;;5012657;28;20426;-81
2021/11/11 16:33:52;;;;;;;31.50;20.03;;;9.90;99.90;;;;;;5014446;28;20927;-81